Time;durP1;ratioP1;P1;durP2;ratioP2;P2;SDS_P1;SDS_P2;PMS_P1;PMS_P2;Temp;Humidity;BMP_temperature;BMP_pressure;BME280_temperature;BME280_humidity;BME280_pressure;Samples;Min_cycle;Max_cycle;Signal;HPM_P1;HPM_P2
2023/08/23 00:00:50;;;;;;;0.10;0.10;;;;;;;-144.31;100.00;58022.63;5052899;28;20296;-64
2023/08/23 00:04:14;;;;;;;0.10;0.10;;;;;;;-144.31;100.00;58022.63;5054164;28;20075;-63
2023/08/23 00:07:38;;;;;;;0.10;0.10;;;;;;;-144.31;100.00;58022.63;5054011;28;20072;-62
2023/08/23 00:11:03;;;;;;;0.10;0.10;;;;;;;-144.31;100.00;58022.63;5052572;28;20490;-64
2023/08/23 00:14:27;;;;;;;0.10;0.10;;;;;;;-144.31;100.00;58022.63;5054602;28;20048;-63
2023/08/23 00:17:51;;;;;;;0.10;0.10;;;;;;;-144.31;100.00;58022.63;5054572;28;20036;-65
2023/08/23 00:21:15;;;;;;;0.10;0.10;;;;;;;-144.31;100.00;58022.63;5052983;28;20075;-63
2023/08/23 00:24:39;;;;;;;0.10;0.10;;;;;;;-144.31;100.00;58022.63;5051512;28;20413;-63
2023/08/23 00:28:03;;;;;;;0.10;0.10;;;;;;;-144.31;100.00;58022.63;5044346;28;20029;-63
2023/08/23 00:31:27;;;;;;;0.10;0.10;;;;;;;-144.31;100.00;58022.63;5051642;28;20390;-64
2023/08/23 00:34:51;;;;;;;0.10;0.10;;;;;;;-144.31;100.00;58022.63;5051794;28;20037;-64
2023/08/23 00:38:15;;;;;;;0.10;0.10;;;;;;;-144.31;100.00;58022.63;5058296;28;20265;-62
2023/08/23 00:41:39;;;;;;;0.10;0.10;;;;;;;-144.31;100.00;58022.63;5050357;28;20175;-63
2023/08/23 00:45:03;;;;;;;0.10;0.10;;;;;;;-144.31;100.00;58022.63;5051884;28;20123;-62
2023/08/23 00:48:27;;;;;;;0.10;0.10;;;;;;;-144.31;100.00;58022.63;5056431;28;20036;-64
2023/08/23 00:51:52;;;;;;;0.10;0.10;;;;;;;-144.31;100.00;58022.63;5051850;28;20120;-63
2023/08/23 00:55:16;;;;;;;0.10;0.10;;;;;;;-144.31;100.00;58022.63;5052995;28;20441;-62
2023/08/23 00:58:40;;;;;;;0.10;0.10;;;;;;;-144.31;100.00;58022.63;5051030;28;20338;-63
2023/08/23 01:02:05;;;;;;;0.10;0.10;;;;;;;-144.31;100.00;58022.63;5057666;28;20443;-65
2023/08/23 01:05:37;;;;;;;0.10;0.10;;;;;;;-144.31;100.00;58022.63;5065971;28;20051;-63
2023/08/23 01:09:16;;;;;;;0.10;0.10;;;;;;;-144.31;100.00;58022.63;5052806;28;20106;-63
2023/08/23 01:12:44;;;;;;;0.10;0.10;;;;;;;-144.31;100.00;58022.63;5052646;28;20604;-62
2023/08/23 01:16:10;;;;;;;0.10;0.10;;;;;;;-144.31;100.00;58022.63;5051894;28;20324;-65
2023/08/23 01:19:48;;;;;;;0.10;0.10;;;;;;;-144.31;100.00;58022.63;5052171;28;20032;-62
2023/08/23 01:23:15;;;;;;;0.10;0.10;;;;;;;-144.31;100.00;58022.63;5051902;28;20098;-62
2023/08/23 01:26:45;;;;;;;0.10;0.10;;;;;;;-144.31;100.00;58022.63;5056591;28;20049;-62
2023/08/23 01:30:11;;;;;;;0.10;0.10;;;;;;;-144.31;100.00;58022.63;5049504;28;20032;-62
2023/08/23 01:33:41;;;;;;;0.10;0.10;;;;;;;-144.31;100.00;58022.63;5058865;28;20041;-62
2023/08/23 01:37:12;;;;;;;0.20;0.20;;;;;;;-144.31;100.00;58022.63;5049623;28;20516;-62
2023/08/23 01:40:36;;;;;;;0.10;0.10;;;;;;;-144.31;100.00;58022.63;5058546;28;20039;-62
2023/08/23 01:44:00;;;;;;;0.10;0.10;;;;;;;-144.31;100.00;58022.63;5050728;28;20304;-62
2023/08/23 01:47:24;;;;;;;0.10;0.10;;;;;;;-144.31;100.00;58022.63;5053317;28;20029;-62
2023/08/23 01:50:50;;;;;;;0.10;0.10;;;;;;;-144.31;100.00;58022.63;5053958;28;20394;-63
2023/08/23 01:54:14;;;;;;;0.10;0.10;;;;;;;-144.31;100.00;58022.63;5052864;28;20052;-62
2023/08/23 01:57:40;;;;;;;0.10;0.10;;;;;;;-144.31;100.00;58022.63;5054846;28;20032;-62
2023/08/23 02:01:04;;;;;;;0.20;0.20;;;;;;;-144.31;100.00;58022.63;5055722;28;20061;-63
2023/08/23 02:04:28;;;;;;;0.10;0.10;;;;;;;-144.31;100.00;58022.63;5054878;28;20094;-62
2023/08/23 02:07:52;;;;;;;0.10;0.10;;;;;;;-144.31;100.00;58022.63;5055368;28;20036;-62
2023/08/23 02:11:18;;;;;;;0.15;0.15;;;;;;;-144.31;100.00;58022.63;5055476;28;20085;-62
2023/08/23 02:14:42;;;;;;;0.10;0.10;;;;;;;-144.31;100.00;58022.63;5053936;28;20043;-65
2023/08/23 02:18:06;;;;;;;0.10;0.10;;;;;;;-144.31;100.00;58022.63;5053759;28;20074;-62
2023/08/23 02:21:30;;;;;;;0.20;0.20;;;;;;;-144.31;100.00;58022.63;5044793;28;20056;-62
2023/08/23 02:24:54;;;;;;;0.20;0.20;;;;;;;-144.31;100.00;58022.63;5053313;28;20130;-62
2023/08/23 02:28:18;;;;;;;0.10;0.10;;;;;;;-144.31;100.00;58022.63;5053048;28;20137;-62
2023/08/23 02:31:42;;;;;;;0.10;0.10;;;;;;;-144.31;100.00;58022.63;5061285;28;20479;-62
2023/08/23 02:35:07;;;;;;;0.10;0.10;;;;;;;-144.31;100.00;58022.63;5059253;28;20485;-62
2023/08/23 02:38:32;;;;;;;0.20;0.20;;;;;;;-144.31;100.00;58022.63;5054294;28;20421;-62
2023/08/23 02:41:56;;;;;;;0.13;0.13;;;;;;;-144.31;100.00;58022.63;5060561;28;20143;-62
2023/08/23 02:45:20;;;;;;;0.13;0.13;;;;;;;-144.31;100.00;58022.63;5055873;28;20037;-63
2023/08/23 02:48:44;;;;;;;0.20;0.20;;;;;;;-144.31;100.00;58022.63;5051488;28;20037;-62
2023/08/23 02:52:08;;;;;;;0.10;0.10;;;;;;;-144.31;100.00;58022.63;5055032;28;20370;-63
2023/08/23 02:55:36;;;;;;;0.10;0.10;;;;;;;-144.31;100.00;58022.63;5055497;28;20070;-62
2023/08/23 02:59:01;;;;;;;0.10;0.10;;;;;;;-144.31;100.00;58022.63;5058572;28;20043;-63
2023/08/23 03:02:25;;;;;;;0.20;0.20;;;;;;;-144.31;100.00;58022.63;5055146;28;20299;-62
2023/08/23 03:05:56;;;;;;;0.10;0.10;;;;;;;-144.31;100.00;58022.63;5050697;28;20041;-62
2023/08/23 03:09:20;;;;;;;0.10;0.10;;;;;;;-144.31;100.00;58022.63;5053973;28;20042;-63
2023/08/23 03:12:44;;;;;;;0.10;0.10;;;;;;;-144.31;100.00;58022.63;5053474;28;20033;-62
2023/08/23 03:16:08;;;;;;;0.20;0.20;;;;;;;-144.31;100.00;58022.63;5067937;28;20043;-62
2023/08/23 03:19:32;;;;;;;0.10;0.10;;;;;;;-144.31;100.00;58022.63;5052745;28;20040;-64
2023/08/23 03:22:56;;;;;;;0.20;0.20;;;;;;;-144.31;100.00;58022.63;5041982;28;20040;-62
2023/08/23 03:26:20;;;;;;;0.20;0.20;;;;;;;-144.31;100.00;58022.63;5055857;28;20033;-61
2023/08/23 03:29:48;;;;;;;0.13;0.13;;;;;;;-144.31;100.00;58022.63;5053531;28;20040;-62
2023/08/23 03:33:13;;;;;;;0.10;0.10;;;;;;;-144.31;100.00;58022.63;5069891;28;20029;-62
2023/08/23 03:36:37;;;;;;;0.20;0.20;;;;;;;-144.31;100.00;58022.63;5042983;28;20036;-62
2023/08/23 03:40:02;;;;;;;0.20;0.20;;;;;;;-144.31;100.00;58022.63;5053188;28;20117;-62
2023/08/23 03:43:26;;;;;;;0.10;0.10;;;;;;;-144.31;100.00;58022.63;5052621;28;20592;-62
2023/08/23 03:46:50;;;;;;;0.20;0.20;;;;;;;-144.31;100.00;58022.63;5053023;28;20044;-62
2023/08/23 03:50:14;;;;;;;0.20;0.20;;;;;;;-144.31;100.00;58022.63;5057894;28;20055;-62
2023/08/23 03:53:38;;;;;;;0.15;0.15;;;;;;;-144.31;100.00;58022.63;5052027;28;20071;-62
2023/08/23 03:57:02;;;;;;;0.10;0.10;;;;;;;-144.31;100.00;58022.63;5056766;28;20577;-62
2023/08/23 04:00:26;;;;;;;0.20;0.20;;;;;;;-144.31;100.00;58022.63;5054226;28;20132;-63
2023/08/23 04:03:50;;;;;;;0.10;0.10;;;;;;;-144.31;100.00;58022.63;5053589;28;20465;-62
2023/08/23 04:07:15;;;;;;;0.20;0.20;;;;;;;-144.31;100.00;58022.63;5051745;28;20478;-61
2023/08/23 04:10:39;;;;;;;0.20;0.20;;;;;;;-144.31;100.00;58022.63;5053554;28;20122;-63
2023/08/23 04:14:03;;;;;;;0.20;0.20;;;;;;;-144.31;100.00;58022.63;5053820;28;20469;-63
2023/08/23 04:17:27;;;;;;;0.20;0.20;;;;;;;-144.31;100.00;58022.63;5060542;28;20037;-63
2023/08/23 04:20:58;;;;;;;0.20;0.20;;;;;;;-144.31;100.00;58022.63;5057992;28;20072;-63
2023/08/23 04:24:22;;;;;;;0.20;0.20;;;;;;;-144.31;100.00;58022.63;5056450;28;20040;-62
2023/08/23 04:27:46;;;;;;;0.20;0.20;;;;;;;-144.31;100.00;58022.63;5052937;28;20498;-61
2023/08/23 04:31:10;;;;;;;0.20;0.20;;;;;;;-144.31;100.00;58022.63;5054405;28;20029;-62
2023/08/23 04:34:44;;;;;;;0.20;0.20;;;;;;;-144.31;100.00;58022.63;5043628;28;20626;-62
2023/08/23 04:38:13;;;;;;;0.20;0.20;;;;;;;-144.31;100.00;58022.63;5052683;28;20036;-62
2023/08/23 04:41:37;;;;;;;0.20;0.20;;;;;;;-144.31;100.00;58022.63;5039968;28;20060;-62
2023/08/23 04:45:02;;;;;;;0.20;0.20;;;;;;;-144.31;100.00;58022.63;5055246;28;20041;-62
2023/08/23 04:48:28;;;;;;;0.20;0.20;;;;;;;-144.31;100.00;58022.63;5049702;28;20362;-61
2023/08/23 04:51:53;;;;;;;0.20;0.20;;;;;;;-144.31;100.00;58022.63;5052193;28;20175;-62
2023/08/23 04:55:17;;;;;;;0.20;0.20;;;;;;;-144.31;100.00;58022.63;5051385;28;20033;-59
2023/08/23 04:58:41;;;;;;;0.20;0.20;;;;;;;-144.31;100.00;58022.63;5035333;28;20061;-60
2023/08/23 05:02:06;;;;;;;0.20;0.20;;;;;;;-144.31;100.00;58022.63;5054485;28;20029;-59
2023/08/23 05:05:30;;;;;;;0.20;0.20;;;;;;;-144.31;100.00;58022.63;5051527;28;20403;-62
2023/08/23 05:08:54;;;;;;;0.20;0.20;;;;;;;-144.31;100.00;58022.63;5054954;28;20032;-62
2023/08/23 05:12:21;;;;;;;0.20;0.20;;;;;;;-144.31;100.00;58022.63;5053345;28;20128;-63
2023/08/23 05:15:52;;;;;;;0.20;0.20;;;;;;;-144.31;100.00;58022.63;5052958;28;20043;-61
2023/08/23 05:19:17;;;;;;;0.20;0.20;;;;;;;-144.31;100.00;58022.63;5051203;28;20032;-61
2023/08/23 05:22:41;;;;;;;0.20;0.20;;;;;;;-144.31;100.00;58022.63;5055557;28;20090;-60
2023/08/23 05:26:06;;;;;;;0.10;0.10;;;;;;;-144.31;100.00;58022.63;5059156;28;20157;-59
2023/08/23 05:29:29;;;;;;;0.20;0.20;;;;;;;-144.31;100.00;58022.63;5055050;28;20533;-60
2023/08/23 05:32:54;;;;;;;0.20;0.20;;;;;;;-144.31;100.00;58022.63;5054185;28;20742;-59
2023/08/23 05:36:19;;;;;;;0.17;0.17;;;;;;;-144.31;100.00;58022.63;5047619;28;20045;-63
2023/08/23 05:39:44;;;;;;;0.10;0.10;;;;;;;-144.31;100.00;58022.63;5058716;28;20040;-61
2023/08/23 05:43:09;;;;;;;0.10;0.10;;;;;;;-144.31;100.00;58022.63;5059412;28;20068;-61
2023/08/23 05:46:33;;;;;;;0.20;0.20;;;;;;;-144.31;100.00;58022.63;5052819;28;20048;-62
2023/08/23 05:49:57;;;;;;;0.10;0.10;;;;;;;-144.31;100.00;58022.63;5062609;28;20067;-61
2023/08/23 05:53:21;;;;;;;0.10;0.10;;;;;;;-144.31;100.00;58022.63;5049114;28;20143;-61
2023/08/23 05:56:48;;;;;;;0.10;0.10;;;;;;;-144.31;100.00;58022.63;5054072;28;20433;-62
2023/08/23 06:00:14;;;;;;;0.10;0.10;;;;;;;-144.31;100.00;58022.63;5052924;28;20028;-61
2023/08/23 06:03:39;;;;;;;0.10;0.10;;;;;;;-144.31;100.00;58022.63;5053243;28;20375;-60
2023/08/23 06:07:03;;;;;;;0.10;0.10;;;;;;;-144.31;100.00;58022.63;5052935;28;20045;-61
2023/08/23 06:10:29;;;;;;;0.10;0.10;;;;;;;-144.31;100.00;58022.63;5057000;28;20341;-61
2023/08/23 06:13:55;;;;;;;0.10;0.10;;;;;;;-144.31;100.00;58022.63;5053861;28;20044;-61
2023/08/23 06:17:18;;;;;;;0.10;0.10;;;;;;;-144.31;100.00;58022.63;5056088;28;20056;-60
2023/08/23 06:20:43;;;;;;;0.10;0.10;;;;;;;-144.31;100.00;58022.63;5052300;28;20529;-60
2023/08/23 06:24:07;;;;;;;0.10;0.10;;;;;;;-144.31;100.00;58022.63;5051941;28;20044;-61
2023/08/23 06:27:32;;;;;;;0.10;0.10;;;;;;;-144.31;100.00;58022.63;5053115;28;20391;-61
2023/08/23 06:30:56;;;;;;;0.10;0.10;;;;;;;-144.31;100.00;58022.63;5056911;28;20068;-62
2023/08/23 06:34:20;;;;;;;0.10;0.10;;;;;;;-144.31;100.00;58022.63;5053106;28;20120;-62
2023/08/23 06:37:44;;;;;;;0.10;0.10;;;;;;;-144.31;100.00;58022.63;5051339;28;20045;-61
2023/08/23 06:41:09;;;;;;;0.10;0.10;;;;;;;-144.31;100.00;58022.63;5056751;28;20390;-62
2023/08/23 06:44:33;;;;;;;0.10;0.10;;;;;;;-144.31;100.00;58022.63;5056910;28;20037;-61
2023/08/23 06:47:57;;;;;;;0.10;0.10;;;;;;;-144.31;100.00;58022.63;5059577;28;20497;-62
2023/08/23 06:51:21;;;;;;;0.10;0.10;;;;;;;-144.31;100.00;58022.63;5065188;28;20082;-62
2023/08/23 06:54:45;;;;;;;0.10;0.10;;;;;;;-144.31;100.00;58022.63;5054821;28;20086;-61
2023/08/23 06:58:09;;;;;;;0.10;0.10;;;;;;;-144.31;100.00;58022.63;5056101;28;20033;-63
2023/08/23 07:01:34;;;;;;;0.10;0.10;;;;;;;-144.31;100.00;58022.63;5056921;28;20044;-62
2023/08/23 07:04:58;;;;;;;0.10;0.10;;;;;;;-144.31;100.00;58022.63;5055798;28;20041;-63
2023/08/23 07:08:22;;;;;;;0.10;0.10;;;;;;;-144.31;100.00;58022.63;5057145;28;20380;-62
2023/08/23 07:11:46;;;;;;;0.03;0.03;;;;;;;-144.31;100.00;58022.63;5055533;28;20041;-61
2023/08/23 07:15:10;;;;;;;0.10;0.10;;;;;;;-144.31;100.00;58022.63;5056621;28;20379;-61
2023/08/23 07:18:34;;;;;;;0.10;0.10;;;;;;;-144.31;100.00;58022.63;5058066;28;20036;-64
2023/08/23 07:21:58;;;;;;;0.00;0.00;;;;;;;-144.31;100.00;58022.63;5053966;28;20037;-62
2023/08/23 07:25:22;;;;;;;0.05;0.05;;;;;;;-144.31;100.00;58022.63;5056753;28;20041;-62
2023/08/23 07:28:46;;;;;;;0.00;0.00;;;;;;;-144.31;100.00;58022.63;5055035;28;20134;-64
2023/08/23 07:32:11;;;;;;;0.03;0.03;;;;;;;-144.31;100.00;58022.63;5056732;28;20136;-62
2023/08/23 07:35:35;;;;;;;0.00;0.00;;;;;;;-144.31;100.00;58022.63;5058538;28;20039;-62
2023/08/23 07:38:59;;;;;;;0.00;0.00;;;;;;;-144.31;100.00;58022.63;5055640;28;20190;-61
2023/08/23 07:42:24;;;;;;;0.10;0.10;;;;;;;-144.31;100.00;58022.63;5055200;28;20478;-62
2023/08/23 07:45:51;;;;;;;0.00;0.00;;;;;;;-144.31;100.00;58022.63;5053561;28;20311;-64
2023/08/23 07:49:15;;;;;;;0.00;0.00;;;;;;;-144.31;100.00;58022.63;5054048;28;20072;-60
2023/08/23 07:52:39;;;;;;;0.10;0.10;;;;;;;-144.31;100.00;58022.63;5063759;28;20060;-62
2023/08/23 07:56:04;;;;;;;0.00;0.00;;;;;;;-144.31;100.00;58022.63;5054542;28;20044;-62
2023/08/23 07:59:28;;;;;;;0.00;0.00;;;;;;;-144.31;100.00;58022.63;5053618;28;20037;-61
2023/08/23 08:02:51;;;;;;;0.00;0.00;;;;;;;-144.31;100.00;58022.63;5056616;28;20155;-64
2023/08/23 08:06:19;;;;;;;0.00;0.00;;;;;;;-144.31;100.00;58022.63;5057687;28;20024;-62
2023/08/23 08:09:43;;;;;;;0.00;0.00;;;;;;;-144.31;100.00;58022.63;5062613;28;20041;-63
2023/08/23 08:13:07;;;;;;;0.00;0.00;;;;;;;-144.31;100.00;58022.63;5054508;28;20078;-62
2023/08/23 08:16:31;;;;;;;0.00;0.00;;;;;;;-144.31;100.00;58022.63;5050907;28;20036;-62
2023/08/23 08:19:54;;;;;;;0.00;0.00;;;;;;;-144.31;100.00;58022.63;5052818;28;20028;-61
2023/08/23 08:23:19;;;;;;;0.00;0.00;;;;;;;-144.31;100.00;58022.63;5054707;28;20032;-61
2023/08/23 08:26:43;;;;;;;0.00;0.00;;;;;;;-144.31;100.00;58022.63;5050951;28;20065;-61
2023/08/23 08:30:07;;;;;;;0.00;0.00;;;;;;;-144.31;100.00;58022.63;5054927;28;20126;-61
2023/08/23 08:33:31;;;;;;;0.00;0.00;;;;;;;-144.31;100.00;58022.63;5048938;28;20072;-62
2023/08/23 08:36:55;;;;;;;0.00;0.00;;;;;;;-144.31;100.00;58022.63;5053665;28;20428;-63
2023/08/23 08:40:21;;;;;;;0.00;0.00;;;;;;;-144.31;100.00;58022.63;5049500;28;20123;-64
2023/08/23 08:43:46;;;;;;;0.00;0.00;;;;;;;-144.31;100.00;58022.63;5050575;28;20339;-61
2023/08/23 08:47:10;;;;;;;0.00;0.00;;;;;;;-144.31;100.00;58022.63;5052856;28;20037;-60
2023/08/23 08:50:34;;;;;;;0.00;0.00;;;;;;;-144.31;100.00;58022.63;5050235;28;20076;-62
2023/08/23 08:53:58;;;;;;;0.00;0.00;;;;;;;-144.31;100.00;58022.63;5051026;28;20041;-65
2023/08/23 08:57:23;;;;;;;0.00;0.00;;;;;;;-144.31;100.00;58022.63;5050448;28;20067;-61
2023/08/23 09:00:48;;;;;;;0.00;0.00;;;;;;;-144.31;100.00;58022.63;5050090;28;20048;-62
2023/08/23 09:04:13;;;;;;;0.00;0.00;;;;;;;-144.31;100.00;58022.63;5050723;28;20029;-61
2023/08/23 09:07:39;;;;;;;0.00;0.00;;;;;;;-144.31;100.00;58022.63;5050868;28;20032;-62
2023/08/23 09:11:04;;;;;;;0.00;0.00;;;;;;;-144.31;100.00;58022.63;5053156;28;20119;-61
2023/08/23 09:14:29;;;;;;;0.00;0.00;;;;;;;-144.31;100.00;58022.63;5052791;28;20036;-63
2023/08/23 09:17:54;;;;;;;;;;;;;;;-144.31;100.00;58022.63;5059926;28;20037;-60
2023/08/23 09:21:20;;;;;;;0.00;0.00;;;;;;;-144.31;100.00;58022.63;5052335;28;19924;-63
2023/08/23 09:24:45;;;;;;;0.00;0.00;;;;;;;-144.31;100.00;58022.63;5050701;28;20037;-60
2023/08/23 09:28:12;;;;;;;0.00;0.00;;;;;;;-144.31;100.00;58022.63;5048891;28;20087;-63
2023/08/23 09:31:36;;;;;;;0.00;0.00;;;;;;;-144.31;100.00;58022.63;5066195;28;20044;-62
2023/08/23 09:35:10;;;;;;;0.00;0.00;;;;;;;-144.31;100.00;58022.63;5053138;28;20033;-63
2023/08/23 09:38:34;;;;;;;0.00;0.00;;;;;;;-144.31;100.00;58022.63;5056400;28;20075;-62
2023/08/23 09:42:03;;;;;;;0.00;0.00;;;;;;;-144.31;100.00;58022.63;5051724;28;20428;-61
2023/08/23 09:45:53;;;;;;;0.00;0.00;;;;;;;-144.31;100.00;58022.63;5051061;28;20124;-64
2023/08/23 09:49:21;;;;;;;0.00;0.00;;;;;;;-144.31;100.00;58022.63;5050381;28;20103;-62
2023/08/23 09:52:57;;;;;;;0.00;0.00;;;;;;;-144.31;100.00;58022.63;5058647;28;20051;-63
2023/08/23 09:56:23;;;;;;;0.00;0.00;;;;;;;-144.31;100.00;58022.63;5050640;28;20532;-62
2023/08/23 09:59:48;;;;;;;0.00;0.00;;;;;;;-144.31;100.00;58022.63;5052049;28;20048;-61
2023/08/23 10:03:15;;;;;;;0.00;0.00;;;;;;;-144.31;100.00;58022.63;5052881;28;20033;-61
2023/08/23 10:06:40;;;;;;;0.00;0.00;;;;;;;-144.31;100.00;58022.63;5049161;28;20029;-64
2023/08/23 10:10:06;;;;;;;0.00;0.00;;;;;;;-144.31;100.00;58022.63;5052553;28;20300;-61
2023/08/23 10:13:33;;;;;;;0.00;0.00;;;;;;;-144.31;100.00;58022.63;5052976;28;20046;-63
2023/08/23 10:16:58;;;;;;;0.00;0.00;;;;;;;-144.31;100.00;58022.63;5055758;28;20051;-64
2023/08/23 10:20:23;;;;;;;0.00;0.00;;;;;;;-144.31;100.00;58022.63;5054665;28;20481;-63
2023/08/23 10:23:48;;;;;;;0.00;0.00;;;;;;;-144.31;100.00;58022.63;5056606;28;20120;-61
2023/08/23 10:27:17;;;;;;;0.00;0.00;;;;;;;-144.31;100.00;58022.63;5056943;28;20129;-60
2023/08/23 10:30:49;;;;;;;0.00;0.00;;;;;;;-144.31;100.00;58022.63;5054454;28;20053;-61
2023/08/23 10:34:14;;;;;;;0.00;0.00;;;;;;;-144.31;100.00;58022.63;5053855;28;20037;-61
2023/08/23 10:37:38;;;;;;;0.00;0.00;;;;;;;-144.31;100.00;58022.63;5057020;28;20039;-61
2023/08/23 10:41:15;;;;;;;0.00;0.00;;;;;;;-144.31;100.00;58022.63;5054074;28;20036;-61
2023/08/23 10:44:53;;;;;;;0.00;0.00;;;;;;;-144.31;100.00;58022.63;5054460;28;20052;-61
2023/08/23 10:48:19;;;;;;;0.00;0.00;;;;;;;-144.31;100.00;58022.63;5053028;28;20090;-63
2023/08/23 10:51:44;;;;;;;0.00;0.00;;;;;;;-144.31;100.00;58022.63;5054309;28;20040;-61
2023/08/23 10:55:11;;;;;;;0.00;0.00;;;;;;;-144.31;100.00;58022.63;5059424;28;20047;-62
2023/08/23 10:58:36;;;;;;;0.00;0.00;;;;;;;-144.31;100.00;58022.63;5051038;28;20068;-62
2023/08/23 11:02:00;;;;;;;0.00;0.00;;;;;;;-144.31;100.00;58022.63;5056475;28;20075;-61
2023/08/23 11:05:24;;;;;;;0.00;0.00;;;;;;;-144.31;100.00;58022.63;5055500;28;20123;-60
2023/08/23 11:08:49;;;;;;;0.00;0.00;;;;;;;-144.31;100.00;58022.63;5055220;28;20120;-62
2023/08/23 11:12:14;;;;;;;0.00;0.00;;;;;;;-144.31;100.00;58022.63;5054691;28;20281;-60
2023/08/23 11:15:38;;;;;;;0.00;0.00;;;;;;;-144.31;100.00;58022.63;5055057;28;20041;-60
2023/08/23 11:19:03;;;;;;;0.00;0.00;;;;;;;-144.31;100.00;58022.63;5068249;28;20123;-61
2023/08/23 11:22:27;;;;;;;;;;;;;;;-144.31;100.00;58022.63;5068476;28;20040;-62
2023/08/23 11:25:53;;;;;;;0.00;0.00;;;;;;;-144.31;100.00;58022.63;5063865;28;19917;-61
2023/08/23 11:29:17;;;;;;;0.00;0.00;;;;;;;-144.31;100.00;58022.63;5054756;28;20045;-62
2023/08/23 11:32:50;;;;;;;0.00;0.00;;;;;;;-144.31;100.00;58022.63;5050066;28;20029;-61
2023/08/23 11:36:20;;;;;;;0.00;0.00;;;;;;;-144.31;100.00;58022.63;5049696;28;20258;-62
2023/08/23 11:40:02;;;;;;;0.00;0.00;;;;;;;-144.31;100.00;58022.63;5049981;28;20037;-62
2023/08/23 11:43:27;;;;;;;0.00;0.00;;;;;;;-144.31;100.00;58022.63;5049860;28;20041;-62
2023/08/23 11:46:51;;;;;;;0.00;0.00;;;;;;;-144.31;100.00;58022.63;5049836;28;20136;-63
2023/08/23 11:50:15;;;;;;;;;;;;;;;-144.31;100.00;58022.63;5054679;28;20067;-63
2023/08/23 11:53:57;;;;;;;0.00;0.00;;;;;;;-144.31;100.00;58022.63;5056144;28;20483;-60
2023/08/23 11:57:22;;;;;;;0.00;0.00;;;;;;;-144.31;100.00;58022.63;5055031;28;20029;-63
2023/08/23 12:00:48;;;;;;;0.00;0.00;;;;;;;-144.31;100.00;58022.63;5046961;28;20131;-59
2023/08/23 12:04:12;;;;;;;0.00;0.00;;;;;;;-144.31;100.00;58022.63;5049173;28;20037;-64
2023/08/23 12:07:36;;;;;;;;;;;;;;;-144.31;100.00;58022.63;5053994;28;20033;-60
2023/08/23 12:11:00;;;;;;;0.00;0.00;;;;;;;-144.31;100.00;58022.63;5058730;28;19917;-59
2023/08/23 12:14:26;;;;;;;0.00;0.00;;;;;;;-144.31;100.00;58022.63;5053188;28;20059;-60
2023/08/23 12:17:50;;;;;;;0.00;0.00;;;;;;;-144.31;100.00;58022.63;5052540;28;20686;-60
2023/08/23 12:21:15;;;;;;;0.00;0.00;;;;;;;-144.31;100.00;58022.63;5051310;28;21297;-61
2023/08/23 12:24:39;;;;;;;0.00;0.00;;;;;;;-144.31;100.00;58022.63;5050839;28;20521;-59
2023/08/23 12:28:03;;;;;;;0.00;0.00;;;;;;;-144.31;100.00;58022.63;5048602;28;20045;-61
2023/08/23 12:31:27;;;;;;;0.00;0.00;;;;;;;-144.31;100.00;58022.63;5048335;28;20378;-61
2023/08/23 12:34:51;;;;;;;;;;;;;;;-144.31;100.00;58022.63;5052475;28;20309;-63
2023/08/23 12:38:14;;;;;;;0.00;0.00;;;;;;;-144.31;100.00;58022.63;5052024;28;19909;-61
2023/08/23 12:41:38;;;;;;;0.00;0.00;;;;;;;-144.31;100.00;58022.63;5049640;28;20549;-61
2023/08/23 12:45:03;;;;;;;0.00;0.00;;;;;;;-144.31;100.00;58022.63;5053070;28;20037;-62
2023/08/23 12:48:27;;;;;;;0.00;0.00;;;;;;;-144.31;100.00;58022.63;5053166;28;20087;-62
2023/08/23 12:51:51;;;;;;;0.00;0.00;;;;;;;-144.31;100.00;58022.63;5052084;28;20060;-61
2023/08/23 12:55:15;;;;;;;0.00;0.00;;;;;;;-144.31;100.00;58022.63;5051606;28;20076;-62
2023/08/23 12:58:39;;;;;;;0.00;0.00;;;;;;;-144.31;100.00;58022.63;5052045;28;20025;-62
2023/08/23 13:02:03;;;;;;;0.00;0.00;;;;;;;-144.31;100.00;58022.63;5051162;28;20105;-62
2023/08/23 13:05:28;;;;;;;0.00;0.00;;;;;;;-144.31;100.00;58022.63;5050818;28;20536;-60
2023/08/23 13:08:52;;;;;;;0.00;0.00;;;;;;;-144.31;100.00;58022.63;5050446;28;20094;-61
2023/08/23 13:12:16;;;;;;;0.00;0.00;;;;;;;-144.31;100.00;58022.63;5049747;28;20380;-61
2023/08/23 13:15:40;;;;;;;0.00;0.00;;;;;;;-144.31;100.00;58022.63;5050786;28;20037;-62
2023/08/23 13:19:04;;;;;;;0.00;0.00;;;;;;;-144.31;100.00;58022.63;5050150;28;20044;-62
2023/08/23 13:22:28;;;;;;;0.00;0.00;;;;;;;-144.31;100.00;58022.63;5050234;28;20037;-61
2023/08/23 13:25:54;;;;;;;0.00;0.00;;;;;;;-144.31;100.00;58022.63;5049604;28;20139;-63
2023/08/23 13:29:17;;;;;;;0.00;0.00;;;;;;;-144.31;100.00;58022.63;5050515;28;20041;-63
2023/08/23 13:32:42;;;;;;;0.00;0.00;;;;;;;-144.31;100.00;58022.63;5049939;28;20040;-62
2023/08/23 13:36:06;;;;;;;0.00;0.00;;;;;;;-144.31;100.00;58022.63;5049777;28;20057;-63
2023/08/23 13:39:30;;;;;;;0.00;0.00;;;;;;;-144.31;100.00;58022.63;5049683;28;20033;-62
2023/08/23 13:42:54;;;;;;;0.00;0.00;;;;;;;-144.31;100.00;58022.63;5053269;28;20081;-62
2023/08/23 13:46:17;;;;;;;0.00;0.00;;;;;;;-144.31;100.00;58022.63;5052233;28;20068;-62
2023/08/23 13:49:41;;;;;;;0.00;0.00;;;;;;;-144.31;100.00;58022.63;5062184;28;20059;-60
2023/08/23 13:53:05;;;;;;;0.00;0.00;;;;;;;-144.31;100.00;58022.63;5054952;28;20391;-61
2023/08/23 13:56:29;;;;;;;0.00;0.00;;;;;;;-144.31;100.00;58022.63;5052031;28;20043;-61
2023/08/23 13:59:53;;;;;;;0.00;0.00;;;;;;;-144.31;100.00;58022.63;5053921;28;20032;-64
2023/08/23 14:03:17;;;;;;;0.00;0.00;;;;;;;-144.31;100.00;58022.63;5056094;28;20036;-60
2023/08/23 14:06:41;;;;;;;0.00;0.00;;;;;;;-144.31;100.00;58022.63;5053572;28;20475;-64
2023/08/23 14:10:05;;;;;;;0.00;0.00;;;;;;;-144.31;100.00;58022.63;5062512;28;20029;-61
2023/08/23 14:13:30;;;;;;;0.00;0.00;;;;;;;-144.31;100.00;58022.63;5052189;28;20037;-61
2023/08/23 14:16:54;;;;;;;0.00;0.00;;;;;;;-144.31;100.00;58022.63;5052510;28;20033;-62
2023/08/23 14:20:20;;;;;;;0.00;0.00;;;;;;;-144.31;100.00;58022.63;5055135;28;20144;-61
2023/08/23 14:23:44;;;;;;;0.00;0.00;;;;;;;-144.31;100.00;58022.63;5051602;28;20087;-61
2023/08/23 14:27:08;;;;;;;0.00;0.00;;;;;;;-144.31;100.00;58022.63;5053242;28;20045;-63
2023/08/23 14:30:34;;;;;;;0.00;0.00;;;;;;;-144.31;100.00;58022.63;5053446;28;20041;-62
2023/08/23 14:33:58;;;;;;;0.00;0.00;;;;;;;-144.31;100.00;58022.63;5050902;28;20045;-61
2023/08/23 14:37:22;;;;;;;0.00;0.00;;;;;;;-144.31;100.00;58022.63;5052013;28;20045;-65
2023/08/23 14:40:47;;;;;;;0.00;0.00;;;;;;;-144.31;100.00;58022.63;5053658;28;20048;-61
2023/08/23 14:44:11;;;;;;;0.00;0.00;;;;;;;-144.31;100.00;58022.63;5052110;28;20039;-61
2023/08/23 14:47:36;;;;;;;0.00;0.00;;;;;;;-144.31;100.00;58022.63;5060710;28;20033;-61
2023/08/23 14:51:00;;;;;;;0.00;0.00;;;;;;;-144.31;100.00;58022.63;5054175;28;20044;-61
2023/08/23 14:54:24;;;;;;;0.00;0.00;;;;;;;-144.31;100.00;58022.63;5057336;28;20051;-62
2023/08/23 14:57:48;;;;;;;0.00;0.00;;;;;;;-144.31;100.00;58022.63;5063381;28;20041;-62
2023/08/23 15:01:12;;;;;;;0.00;0.00;;;;;;;-144.31;100.00;58022.63;5051589;28;20037;-61
2023/08/23 15:04:36;;;;;;;0.00;0.00;;;;;;;-144.31;100.00;58022.63;5052512;28;20113;-60
2023/08/23 15:08:01;;;;;;;0.00;0.00;;;;;;;-144.31;100.00;58022.63;5050754;28;20036;-62
2023/08/23 15:11:24;;;;;;;0.00;0.00;;;;;;;-144.31;100.00;58022.63;5052963;28;20466;-61
2023/08/23 15:14:49;;;;;;;0.00;0.00;;;;;;;-144.31;100.00;58022.63;5056752;28;20059;-62
2023/08/23 15:18:13;;;;;;;0.00;0.00;;;;;;;-144.31;100.00;58022.63;5059605;28;20070;-62
2023/08/23 15:21:37;;;;;;;0.00;0.00;;;;;;;-144.31;100.00;58022.63;5055089;28;20488;-62
2023/08/23 15:25:02;;;;;;;0.00;0.00;;;;;;;-144.31;100.00;58022.63;5056956;28;20068;-61
2023/08/23 15:28:26;;;;;;;0.00;0.00;;;;;;;-144.31;100.00;58022.63;5054926;28;20055;-62
2023/08/23 15:31:50;;;;;;;0.00;0.00;;;;;;;-144.31;100.00;58022.63;5058209;28;20078;-61